sensor_id;sensor_type;location;lat;lon;timestamp;P1;durP1;ratioP1;P2;durP2;ratioP2
66093;SDS011;52876;49.394;10.892;2022-11-15T00:01:18;132.43;;;42.40;;
66093;SDS011;52876;49.394;10.892;2022-11-15T00:03:44;93.60;;;33.10;;
66093;SDS011;52876;49.394;10.892;2022-11-15T00:06:12;136.37;;;45.47;;
66093;SDS011;52876;49.394;10.892;2022-11-15T00:08:38;137.07;;;46.37;;
66093;SDS011;52876;49.394;10.892;2022-11-15T00:11:04;112.63;;;37.77;;
66093;SDS011;52876;49.394;10.892;2022-11-15T00:13:30;194.80;;;65.00;;
66093;SDS011;52876;49.394;10.892;2022-11-15T00:15:57;166.67;;;56.87;;
66093;SDS011;52876;49.394;10.892;2022-11-15T00:18:23;47.97;;;18.03;;
66093;SDS011;52876;49.394;10.892;2022-11-15T00:20:51;214.47;;;77.10;;
66093;SDS011;52876;49.394;10.892;2022-11-15T00:23:17;81.17;;;27.60;;
66093;SDS011;52876;49.394;10.892;2022-11-15T00:25:45;120.53;;;39.17;;
66093;SDS011;52876;49.394;10.892;2022-11-15T00:28:11;109.17;;;34.23;;
66093;SDS011;52876;49.394;10.892;2022-11-15T00:30:38;116.13;;;35.83;;
66093;SDS011;52876;49.394;10.892;2022-11-15T00:33:06;129.00;;;39.07;;
66093;SDS011;52876;49.394;10.892;2022-11-15T00:35:33;88.03;;;27.87;;
66093;SDS011;52876;49.394;10.892;2022-11-15T00:37:59;120.47;;;39.50;;
66093;SDS011;52876;49.394;10.892;2022-11-15T00:40:25;100.10;;;31.07;;
66093;SDS011;52876;49.394;10.892;2022-11-15T00:42:52;215.10;;;65.23;;
66093;SDS011;52876;49.394;10.892;2022-11-15T00:45:17;109.97;;;33.47;;
66093;SDS011;52876;49.394;10.892;2022-11-15T00:47:45;198.00;;;65.43;;
66093;SDS011;52876;49.394;10.892;2022-11-15T00:50:12;134.53;;;40.63;;
66093;SDS011;52876;49.394;10.892;2022-11-15T00:52:40;43.10;;;17.17;;
66093;SDS011;52876;49.394;10.892;2022-11-15T00:55:07;115.43;;;35.80;;
66093;SDS011;52876;49.394;10.892;2022-11-15T00:57:36;121.10;;;37.07;;
66093;SDS011;52876;49.394;10.892;2022-11-15T01:00:02;121.37;;;41.27;;
66093;SDS011;52876;49.394;10.892;2022-11-15T01:02:30;135.73;;;41.17;;
66093;SDS011;52876;49.394;10.892;2022-11-15T01:04:56;171.23;;;56.10;;
66093;SDS011;52876;49.394;10.892;2022-11-15T01:07:23;122.00;;;38.87;;
66093;SDS011;52876;49.394;10.892;2022-11-15T01:09:49;65.30;;;22.13;;
66093;SDS011;52876;49.394;10.892;2022-11-15T01:12:17;74.43;;;24.13;;
66093;SDS011;52876;49.394;10.892;2022-11-15T01:14:43;148.57;;;44.73;;
66093;SDS011;52876;49.394;10.892;2022-11-15T01:17:09;128.13;;;37.50;;
66093;SDS011;52876;49.394;10.892;2022-11-15T01:19:35;94.30;;;29.20;;
66093;SDS011;52876;49.394;10.892;2022-11-15T01:22:03;76.40;;;24.30;;
66093;SDS011;52876;49.394;10.892;2022-11-15T01:24:30;84.70;;;26.80;;
66093;SDS011;52876;49.394;10.892;2022-11-15T01:26:56;152.63;;;49.87;;
66093;SDS011;52876;49.394;10.892;2022-11-15T01:29:22;116.97;;;37.10;;
66093;SDS011;52876;49.394;10.892;2022-11-15T01:31:50;198.87;;;57.57;;
66093;SDS011;52876;49.394;10.892;2022-11-15T01:34:16;108.07;;;33.50;;
66093;SDS011;52876;49.394;10.892;2022-11-15T01:36:43;159.77;;;52.23;;
66093;SDS011;52876;49.394;10.892;2022-11-15T01:39:09;103.40;;;32.70;;
66093;SDS011;52876;49.394;10.892;2022-11-15T01:41:38;76.97;;;25.13;;
66093;SDS011;52876;49.394;10.892;2022-11-15T01:46:49;218.53;;;67.33;;
66093;SDS011;52876;49.394;10.892;2022-11-15T01:49:16;72.50;;;23.70;;
66093;SDS011;52876;49.394;10.892;2022-11-15T01:51:44;82.30;;;25.93;;
66093;SDS011;52876;49.394;10.892;2022-11-15T01:54:11;130.00;;;38.80;;
66093;SDS011;52876;49.394;10.892;2022-11-15T01:56:42;84.03;;;28.60;;
66093;SDS011;52876;49.394;10.892;2022-11-15T01:59:09;103.63;;;32.50;;
66093;SDS011;52876;49.394;10.892;2022-11-15T02:04:40;106.23;;;33.63;;
66093;SDS011;52876;49.394;10.892;2022-11-15T02:07:07;127.47;;;39.43;;
66093;SDS011;52876;49.394;10.892;2022-11-15T02:09:35;73.03;;;25.10;;
66093;SDS011;52876;49.394;10.892;2022-11-15T02:12:04;128.17;;;38.87;;
66093;SDS011;52876;49.394;10.892;2022-11-15T02:14:31;86.90;;;28.53;;
66093;SDS011;52876;49.394;10.892;2022-11-15T02:17:01;158.10;;;45.57;;
66093;SDS011;52876;49.394;10.892;2022-11-15T02:19:36;81.73;;;26.63;;
66093;SDS011;52876;49.394;10.892;2022-11-15T02:22:10;107.83;;;33.97;;
66093;SDS011;52876;49.394;10.892;2022-11-15T02:27:46;93.80;;;31.43;;
66093;SDS011;52876;49.394;10.892;2022-11-15T02:30:21;116.43;;;36.67;;
66093;SDS011;52876;49.394;10.892;2022-11-15T02:32:48;71.90;;;25.13;;
66093;SDS011;52876;49.394;10.892;2022-11-15T02:35:19;97.10;;;32.20;;
66093;SDS011;52876;49.394;10.892;2022-11-15T02:37:50;215.30;;;74.73;;
66093;SDS011;52876;49.394;10.892;2022-11-15T02:40:21;82.00;;;27.50;;
66093;SDS011;52876;49.394;10.892;2022-11-15T02:42:50;214.37;;;60.60;;
66093;SDS011;52876;49.394;10.892;2022-11-15T02:45:17;148.17;;;42.40;;
66093;SDS011;52876;49.394;10.892;2022-11-15T02:47:47;130.53;;;44.47;;
66093;SDS011;52876;49.394;10.892;2022-11-15T02:50:16;76.43;;;25.90;;
66093;SDS011;52876;49.394;10.892;2022-11-15T02:52:44;180.10;;;51.47;;
66093;SDS011;52876;49.394;10.892;2022-11-15T02:55:25;106.73;;;33.20;;
66093;SDS011;52876;49.394;10.892;2022-11-15T02:57:52;208.90;;;68.97;;
66093;SDS011;52876;49.394;10.892;2022-11-15T03:00:22;87.17;;;27.93;;
66093;SDS011;52876;49.394;10.892;2022-11-15T03:02:55;216.77;;;71.30;;
66093;SDS011;52876;49.394;10.892;2022-11-15T03:05:24;50.80;;;18.53;;
66093;SDS011;52876;49.394;10.892;2022-11-15T03:07:52;95.93;;;30.20;;
66093;SDS011;52876;49.394;10.892;2022-11-15T03:10:21;93.37;;;29.33;;
66093;SDS011;52876;49.394;10.892;2022-11-15T03:12:51;192.20;;;55.10;;
66093;SDS011;52876;49.394;10.892;2022-11-15T03:15:20;91.00;;;28.50;;
66093;SDS011;52876;49.394;10.892;2022-11-15T03:17:50;185.10;;;50.60;;
66093;SDS011;52876;49.394;10.892;2022-11-15T03:20:18;84.67;;;26.13;;
66093;SDS011;52876;49.394;10.892;2022-11-15T03:22:46;137.47;;;42.17;;
66093;SDS011;52876;49.394;10.892;2022-11-15T03:25:15;88.90;;;29.23;;
66093;SDS011;52876;49.394;10.892;2022-11-15T03:27:44;42.90;;;16.50;;
66093;SDS011;52876;49.394;10.892;2022-11-15T03:30:12;101.20;;;30.43;;
66093;SDS011;52876;49.394;10.892;2022-11-15T03:32:42;75.83;;;24.53;;
66093;SDS011;52876;49.394;10.892;2022-11-15T03:35:10;136.57;;;38.73;;
66093;SDS011;52876;49.394;10.892;2022-11-15T03:37:42;84.60;;;26.77;;
66093;SDS011;52876;49.394;10.892;2022-11-15T03:40:10;140.43;;;39.40;;
66093;SDS011;52876;49.394;10.892;2022-11-15T03:42:39;82.03;;;26.33;;
66093;SDS011;52876;49.394;10.892;2022-11-15T03:45:08;73.20;;;24.43;;
66093;SDS011;52876;49.394;10.892;2022-11-15T03:47:38;40.23;;;15.40;;
66093;SDS011;52876;49.394;10.892;2022-11-15T03:50:07;53.67;;;19.80;;
66093;SDS011;52876;49.394;10.892;2022-11-15T03:52:35;77.50;;;24.40;;
66093;SDS011;52876;49.394;10.892;2022-11-15T03:55:03;166.30;;;50.80;;
66093;SDS011;52876;49.394;10.892;2022-11-15T03:57:31;64.53;;;22.50;;
66093;SDS011;52876;49.394;10.892;2022-11-15T03:59:57;96.73;;;28.03;;
66093;SDS011;52876;49.394;10.892;2022-11-15T04:02:24;57.50;;;20.97;;
66093;SDS011;52876;49.394;10.892;2022-11-15T04:04:50;104.63;;;33.13;;
66093;SDS011;52876;49.394;10.892;2022-11-15T04:07:16;85.27;;;29.40;;
66093;SDS011;52876;49.394;10.892;2022-11-15T04:09:42;94.73;;;32.30;;
66093;SDS011;52876;49.394;10.892;2022-11-15T04:12:10;79.20;;;26.70;;
66093;SDS011;52876;49.394;10.892;2022-11-15T04:14:36;47.53;;;19.00;;
66093;SDS011;52876;49.394;10.892;2022-11-15T04:17:03;52.37;;;19.77;;
66093;SDS011;52876;49.394;10.892;2022-11-15T04:19:30;65.07;;;23.57;;
66093;SDS011;52876;49.394;10.892;2022-11-15T04:21:56;104.67;;;30.03;;
66093;SDS011;52876;49.394;10.892;2022-11-15T04:24:22;66.60;;;21.80;;
66093;SDS011;52876;49.394;10.892;2022-11-15T04:26:49;111.40;;;31.50;;
66093;SDS011;52876;49.394;10.892;2022-11-15T04:29:17;34.10;;;15.73;;
66093;SDS011;52876;49.394;10.892;2022-11-15T04:31:45;38.07;;;18.40;;
66093;SDS011;52876;49.394;10.892;2022-11-15T04:34:11;35.27;;;16.53;;
66093;SDS011;52876;49.394;10.892;2022-11-15T04:36:38;33.63;;;16.47;;
66093;SDS011;52876;49.394;10.892;2022-11-15T04:39:04;33.10;;;14.03;;
66093;SDS011;52876;49.394;10.892;2022-11-15T04:41:32;16.30;;;10.10;;
66093;SDS011;52876;49.394;10.892;2022-11-15T04:43:58;14.00;;;9.13;;
66093;SDS011;52876;49.394;10.892;2022-11-15T04:46:27;13.33;;;10.20;;
66093;SDS011;52876;49.394;10.892;2022-11-15T04:48:53;39.00;;;17.83;;
66093;SDS011;52876;49.394;10.892;2022-11-15T04:51:19;19.50;;;12.23;;
66093;SDS011;52876;49.394;10.892;2022-11-15T04:53:45;35.73;;;17.37;;
66093;SDS011;52876;49.394;10.892;2022-11-15T04:56:11;17.37;;;10.90;;
66093;SDS011;52876;49.394;10.892;2022-11-15T04:58:37;21.93;;;13.00;;
66093;SDS011;52876;49.394;10.892;2022-11-15T05:01:06;20.63;;;12.83;;
66093;SDS011;52876;49.394;10.892;2022-11-15T05:03:35;18.10;;;11.67;;
66093;SDS011;52876;49.394;10.892;2022-11-15T05:06:02;31.90;;;15.77;;
66093;SDS011;52876;49.394;10.892;2022-11-15T05:08:28;18.57;;;15.00;;
66093;SDS011;52876;49.394;10.892;2022-11-15T05:10:56;35.47;;;17.43;;
66093;SDS011;52876;49.394;10.892;2022-11-15T05:13:22;18.43;;;11.23;;
66093;SDS011;52876;49.394;10.892;2022-11-15T05:15:49;41.60;;;23.37;;
66093;SDS011;52876;49.394;10.892;2022-11-15T05:18:15;25.27;;;17.43;;
66093;SDS011;52876;49.394;10.892;2022-11-15T05:20:44;32.27;;;28.80;;
66093;SDS011;52876;49.394;10.892;2022-11-15T05:23:10;19.60;;;14.77;;
66093;SDS011;52876;49.394;10.892;2022-11-15T05:25:37;22.23;;;17.30;;
66093;SDS011;52876;49.394;10.892;2022-11-15T05:28:03;28.20;;;13.20;;
66093;SDS011;52876;49.394;10.892;2022-11-15T05:30:30;13.77;;;11.53;;
66093;SDS011;52876;49.394;10.892;2022-11-15T05:32:56;33.00;;;16.57;;
66093;SDS011;52876;49.394;10.892;2022-11-15T05:35:24;17.17;;;12.17;;
66093;SDS011;52876;49.394;10.892;2022-11-15T05:37:56;31.67;;;15.97;;
66093;SDS011;52876;49.394;10.892;2022-11-15T05:40:22;9.07;;;8.10;;
66093;SDS011;52876;49.394;10.892;2022-11-15T05:42:48;14.93;;;9.97;;
66093;SDS011;52876;49.394;10.892;2022-11-15T05:45:14;15.00;;;11.87;;
66093;SDS011;52876;49.394;10.892;2022-11-15T05:47:42;15.83;;;12.13;;
66093;SDS011;52876;49.394;10.892;2022-11-15T05:50:10;12.10;;;10.80;;
66093;SDS011;52876;49.394;10.892;2022-11-15T05:52:39;11.53;;;10.33;;
66093;SDS011;52876;49.394;10.892;2022-11-15T05:55:07;12.37;;;9.50;;
66093;SDS011;52876;49.394;10.892;2022-11-15T05:57:35;11.53;;;9.30;;
66093;SDS011;52876;49.394;10.892;2022-11-15T06:00:02;21.40;;;13.70;;
66093;SDS011;52876;49.394;10.892;2022-11-15T06:02:31;18.10;;;14.10;;
66093;SDS011;52876;49.394;10.892;2022-11-15T06:04:57;26.53;;;16.17;;
66093;SDS011;52876;49.394;10.892;2022-11-15T06:07:23;16.23;;;12.97;;
66093;SDS011;52876;49.394;10.892;2022-11-15T06:09:49;52.40;;;21.23;;
66093;SDS011;52876;49.394;10.892;2022-11-15T06:12:16;32.47;;;16.30;;
66093;SDS011;52876;49.394;10.892;2022-11-15T06:14:42;77.87;;;26.97;;
66093;SDS011;52876;49.394;10.892;2022-11-15T06:17:08;82.13;;;28.00;;
66093;SDS011;52876;49.394;10.892;2022-11-15T06:19:34;66.67;;;25.17;;
66093;SDS011;52876;49.394;10.892;2022-11-15T06:22:01;143.87;;;42.83;;
66093;SDS011;52876;49.394;10.892;2022-11-15T06:24:27;54.83;;;20.43;;
66093;SDS011;52876;49.394;10.892;2022-11-15T06:26:55;111.10;;;32.13;;
66093;SDS011;52876;49.394;10.892;2022-11-15T06:29:22;58.20;;;18.63;;
66093;SDS011;52876;49.394;10.892;2022-11-15T06:31:50;128.57;;;37.00;;
66093;SDS011;52876;49.394;10.892;2022-11-15T06:34:16;50.03;;;17.83;;
66093;SDS011;52876;49.394;10.892;2022-11-15T06:36:43;37.80;;;15.20;;
66093;SDS011;52876;49.394;10.892;2022-11-15T06:39:10;23.50;;;12.60;;
66093;SDS011;52876;49.394;10.892;2022-11-15T06:41:37;34.50;;;15.30;;
66093;SDS011;52876;49.394;10.892;2022-11-15T06:44:03;65.97;;;23.20;;
66093;SDS011;52876;49.394;10.892;2022-11-15T06:46:31;31.77;;;15.10;;
66093;SDS011;52876;49.394;10.892;2022-11-15T06:48:56;50.83;;;20.50;;
66093;SDS011;52876;49.394;10.892;2022-11-15T06:51:22;27.23;;;14.00;;
66093;SDS011;52876;49.394;10.892;2022-11-15T06:53:48;49.00;;;20.27;;
66093;SDS011;52876;49.394;10.892;2022-11-15T06:56:14;19.70;;;12.20;;
66093;SDS011;52876;49.394;10.892;2022-11-15T06:58:40;18.70;;;12.43;;
66093;SDS011;52876;49.394;10.892;2022-11-15T07:01:08;26.97;;;16.97;;
66093;SDS011;52876;49.394;10.892;2022-11-15T07:03:36;29.60;;;18.73;;
66093;SDS011;52876;49.394;10.892;2022-11-15T07:06:03;37.33;;;21.50;;
66093;SDS011;52876;49.394;10.892;2022-11-15T07:08:29;30.57;;;17.60;;
66093;SDS011;52876;49.394;10.892;2022-11-15T07:10:57;47.57;;;21.20;;
66093;SDS011;52876;49.394;10.892;2022-11-15T07:13:24;24.17;;;15.43;;
66093;SDS011;52876;49.394;10.892;2022-11-15T07:15:51;36.00;;;19.27;;
66093;SDS011;52876;49.394;10.892;2022-11-15T07:18:17;22.70;;;15.47;;
66093;SDS011;52876;49.394;10.892;2022-11-15T07:20:46;16.70;;;12.23;;
66093;SDS011;52876;49.394;10.892;2022-11-15T07:23:12;15.80;;;11.53;;
66093;SDS011;52876;49.394;10.892;2022-11-15T07:25:39;9.80;;;7.90;;
66093;SDS011;52876;49.394;10.892;2022-11-15T07:28:05;13.40;;;10.57;;
66093;SDS011;52876;49.394;10.892;2022-11-15T07:30:31;32.80;;;15.40;;
66093;SDS011;52876;49.394;10.892;2022-11-15T07:32:58;72.97;;;21.43;;
66093;SDS011;52876;49.394;10.892;2022-11-15T07:35:25;39.40;;;14.03;;
66093;SDS011;52876;49.394;10.892;2022-11-15T07:37:56;61.03;;;18.93;;
66093;SDS011;52876;49.394;10.892;2022-11-15T07:40:23;59.33;;;19.20;;
66093;SDS011;52876;49.394;10.892;2022-11-15T07:42:49;134.97;;;38.50;;
66093;SDS011;52876;49.394;10.892;2022-11-15T07:45:15;71.30;;;22.30;;
66093;SDS011;52876;49.394;10.892;2022-11-15T07:47:44;118.80;;;33.83;;
66093;SDS011;52876;49.394;10.892;2022-11-15T07:50:10;75.23;;;24.53;;
66093;SDS011;52876;49.394;10.892;2022-11-15T07:52:38;68.70;;;22.73;;
66093;SDS011;52876;49.394;10.892;2022-11-15T07:55:06;82.13;;;24.87;;
66093;SDS011;52876;49.394;10.892;2022-11-15T07:57:34;44.43;;;16.00;;
66093;SDS011;52876;49.394;10.892;2022-11-15T08:00:00;93.90;;;27.53;;
66093;SDS011;52876;49.394;10.892;2022-11-15T08:02:28;56.63;;;20.40;;
66093;SDS011;52876;49.394;10.892;2022-11-15T08:04:54;98.67;;;28.83;;
66093;SDS011;52876;49.394;10.892;2022-11-15T08:07:20;53.50;;;19.03;;
66093;SDS011;52876;49.394;10.892;2022-11-15T08:09:46;68.17;;;22.20;;
66093;SDS011;52876;49.394;10.892;2022-11-15T08:12:13;78.93;;;24.53;;
66093;SDS011;52876;49.394;10.892;2022-11-15T08:14:39;71.47;;;23.40;;
66093;SDS011;52876;49.394;10.892;2022-11-15T08:17:07;58.00;;;19.07;;
66093;SDS011;52876;49.394;10.892;2022-11-15T08:19:33;65.50;;;21.00;;
66093;SDS011;52876;49.394;10.892;2022-11-15T08:21:59;163.43;;;44.90;;
66093;SDS011;52876;49.394;10.892;2022-11-15T08:24:25;62.53;;;20.70;;
66093;SDS011;52876;49.394;10.892;2022-11-15T08:26:52;104.07;;;30.30;;
66093;SDS011;52876;49.394;10.892;2022-11-15T08:29:20;76.63;;;25.80;;
66093;SDS011;52876;49.394;10.892;2022-11-15T08:31:47;104.47;;;34.93;;
66093;SDS011;52876;49.394;10.892;2022-11-15T08:34:13;124.40;;;42.23;;
66093;SDS011;52876;49.394;10.892;2022-11-15T08:36:39;104.33;;;36.00;;
66093;SDS011;52876;49.394;10.892;2022-11-15T08:39:05;114.07;;;36.03;;
66093;SDS011;52876;49.394;10.892;2022-11-15T08:41:32;89.37;;;27.93;;
66093;SDS011;52876;49.394;10.892;2022-11-15T08:43:59;447.93;;;157.80;;
66093;SDS011;52876;49.394;10.892;2022-11-15T08:46:26;132.47;;;41.93;;
66093;SDS011;52876;49.394;10.892;2022-11-15T08:48:52;194.57;;;72.10;;
66093;SDS011;52876;49.394;10.892;2022-11-15T08:51:18;81.57;;;28.87;;
66093;SDS011;52876;49.394;10.892;2022-11-15T08:53:44;86.90;;;30.43;;
66093;SDS011;52876;49.394;10.892;2022-11-15T08:56:11;158.90;;;47.10;;
66093;SDS011;52876;49.394;10.892;2022-11-15T08:58:37;107.57;;;33.73;;
66093;SDS011;52876;49.394;10.892;2022-11-15T09:01:05;87.63;;;29.10;;
66093;SDS011;52876;49.394;10.892;2022-11-15T09:03:32;86.30;;;29.40;;
66093;SDS011;52876;49.394;10.892;2022-11-15T09:06:00;152.80;;;46.20;;
66093;SDS011;52876;49.394;10.892;2022-11-15T09:08:29;131.00;;;37.67;;
66093;SDS011;52876;49.394;10.892;2022-11-15T09:10:57;153.50;;;47.40;;
66093;SDS011;52876;49.394;10.892;2022-11-15T09:13:23;155.60;;;55.53;;
66093;SDS011;52876;49.394;10.892;2022-11-15T09:15:49;270.90;;;88.97;;
66093;SDS011;52876;49.394;10.892;2022-11-15T09:18:15;131.00;;;47.27;;
66093;SDS011;52876;49.394;10.892;2022-11-15T09:20:44;118.30;;;48.67;;
66093;SDS011;52876;49.394;10.892;2022-11-15T09:23:10;101.17;;;37.67;;
66093;SDS011;52876;49.394;10.892;2022-11-15T09:25:38;89.27;;;34.13;;
66093;SDS011;52876;49.394;10.892;2022-11-15T09:28:05;182.50;;;76.80;;
66093;SDS011;52876;49.394;10.892;2022-11-15T09:30:31;159.77;;;73.93;;
66093;SDS011;52876;49.394;10.892;2022-11-15T09:32:57;201.50;;;87.00;;
66093;SDS011;52876;49.394;10.892;2022-11-15T09:35:24;140.50;;;65.60;;
66093;SDS011;52876;49.394;10.892;2022-11-15T09:37:51;221.77;;;90.53;;
66093;SDS011;52876;49.394;10.892;2022-11-15T09:40:17;152.47;;;70.50;;
66093;SDS011;52876;49.394;10.892;2022-11-15T09:42:57;166.40;;;72.80;;
66093;SDS011;52876;49.394;10.892;2022-11-15T09:45:28;143.43;;;59.57;;
66093;SDS011;52876;49.394;10.892;2022-11-15T09:48:00;244.17;;;101.13;;
66093;SDS011;52876;49.394;10.892;2022-11-15T09:50:31;139.67;;;55.73;;
66093;SDS011;52876;49.394;10.892;2022-11-15T09:53:01;178.70;;;71.13;;
66093;SDS011;52876;49.394;10.892;2022-11-15T09:55:30;145.63;;;61.10;;
66093;SDS011;52876;49.394;10.892;2022-11-15T09:58:00;191.80;;;70.43;;
66093;SDS011;52876;49.394;10.892;2022-11-15T10:00:31;142.43;;;62.83;;
66093;SDS011;52876;49.394;10.892;2022-11-15T10:03:06;150.17;;;63.17;;
66093;SDS011;52876;49.394;10.892;2022-11-15T10:05:36;152.37;;;60.47;;
66093;SDS011;52876;49.394;10.892;2022-11-15T10:08:05;146.30;;;56.63;;
66093;SDS011;52876;49.394;10.892;2022-11-15T10:10:38;159.00;;;65.83;;
66093;SDS011;52876;49.394;10.892;2022-11-15T10:13:06;169.67;;;70.53;;
66093;SDS011;52876;49.394;10.892;2022-11-15T10:15:36;139.60;;;66.77;;
66093;SDS011;52876;49.394;10.892;2022-11-15T10:18:12;162.60;;;70.40;;
66093;SDS011;52876;49.394;10.892;2022-11-15T10:20:42;163.20;;;76.23;;
66093;SDS011;52876;49.394;10.892;2022-11-15T10:23:13;163.43;;;72.83;;
66093;SDS011;52876;49.394;10.892;2022-11-15T10:25:39;111.90;;;50.37;;
66093;SDS011;52876;49.394;10.892;2022-11-15T10:28:09;125.53;;;63.33;;
66093;SDS011;52876;49.394;10.892;2022-11-15T10:30:38;113.23;;;35.60;;
66093;SDS011;52876;49.394;10.892;2022-11-15T10:33:12;161.57;;;59.87;;
66093;SDS011;52876;49.394;10.892;2022-11-15T10:35:39;104.17;;;36.53;;
66093;SDS011;52876;49.394;10.892;2022-11-15T10:38:07;146.63;;;53.17;;
66093;SDS011;52876;49.394;10.892;2022-11-15T10:40:35;137.73;;;49.60;;
66093;SDS011;52876;49.394;10.892;2022-11-15T10:43:05;136.43;;;46.23;;
66093;SDS011;52876;49.394;10.892;2022-11-15T17:05:47;14.70;;;10.00;;
66093;SDS011;52876;49.394;10.892;2022-11-15T17:08:13;8.43;;;7.60;;
66093;SDS011;52876;49.394;10.892;2022-11-15T17:10:40;10.83;;;8.23;;
66093;SDS011;52876;49.394;10.892;2022-11-15T17:13:07;11.90;;;10.67;;
66093;SDS011;52876;49.394;10.892;2022-11-15T17:15:35;12.17;;;10.27;;
66093;SDS011;52876;49.394;10.892;2022-11-15T17:18:01;17.37;;;12.67;;
66093;SDS011;52876;49.394;10.892;2022-11-15T17:20:27;12.70;;;9.90;;
66093;SDS011;52876;49.394;10.892;2022-11-15T17:22:55;11.13;;;9.93;;
66093;SDS011;52876;49.394;10.892;2022-11-15T17:25:22;10.77;;;9.10;;
66093;SDS011;52876;49.394;10.892;2022-11-15T17:27:48;18.53;;;14.83;;
66093;SDS011;52876;49.394;10.892;2022-11-15T17:30:15;13.20;;;10.80;;
66093;SDS011;52876;49.394;10.892;2022-11-15T17:32:42;11.20;;;9.97;;
66093;SDS011;52876;49.394;10.892;2022-11-15T17:35:09;19.43;;;15.80;;
66093;SDS011;52876;49.394;10.892;2022-11-15T17:37:38;19.30;;;11.93;;
66093;SDS011;52876;49.394;10.892;2022-11-15T17:40:06;24.47;;;12.87;;
66093;SDS011;52876;49.394;10.892;2022-11-15T17:42:34;20.43;;;16.00;;
66093;SDS011;52876;49.394;10.892;2022-11-15T17:45:00;28.30;;;19.63;;
66093;SDS011;52876;49.394;10.892;2022-11-15T17:47:27;19.30;;;14.07;;
66093;SDS011;52876;49.394;10.892;2022-11-15T17:49:53;14.47;;;12.20;;
66093;SDS011;52876;49.394;10.892;2022-11-15T17:52:21;11.37;;;10.17;;
66093;SDS011;52876;49.394;10.892;2022-11-15T17:54:47;12.30;;;10.40;;
66093;SDS011;52876;49.394;10.892;2022-11-15T17:57:14;10.20;;;9.03;;
66093;SDS011;52876;49.394;10.892;2022-11-15T17:59:40;13.27;;;11.30;;
66093;SDS011;52876;49.394;10.892;2022-11-15T18:02:07;8.63;;;7.83;;
66093;SDS011;52876;49.394;10.892;2022-11-15T18:04:33;9.63;;;8.60;;
66093;SDS011;52876;49.394;10.892;2022-11-15T18:06:59;11.80;;;10.60;;
66093;SDS011;52876;49.394;10.892;2022-11-15T18:09:25;9.73;;;8.87;;
66093;SDS011;52876;49.394;10.892;2022-11-15T18:11:53;10.53;;;9.53;;
66093;SDS011;52876;49.394;10.892;2022-11-15T18:14:20;14.47;;;12.30;;
66093;SDS011;52876;49.394;10.892;2022-11-15T18:16:46;9.20;;;8.30;;
66093;SDS011;52876;49.394;10.892;2022-11-15T18:19:12;7.53;;;6.93;;
66093;SDS011;52876;49.394;10.892;2022-11-15T18:21:40;10.47;;;9.43;;
66093;SDS011;52876;49.394;10.892;2022-11-15T18:24:07;15.90;;;14.30;;
66093;SDS011;52876;49.394;10.892;2022-11-15T18:26:33;9.33;;;8.20;;
66093;SDS011;52876;49.394;10.892;2022-11-15T18:29:01;17.10;;;12.70;;
66093;SDS011;52876;49.394;10.892;2022-11-15T18:31:30;10.00;;;8.73;;
66093;SDS011;52876;49.394;10.892;2022-11-15T18:33:57;16.43;;;12.50;;
66093;SDS011;52876;49.394;10.892;2022-11-15T18:36:24;11.27;;;9.97;;
66093;SDS011;52876;49.394;10.892;2022-11-15T18:38:52;16.67;;;12.87;;
66093;SDS011;52876;49.394;10.892;2022-11-15T18:41:18;12.10;;;10.90;;
66093;SDS011;52876;49.394;10.892;2022-11-15T18:43:45;13.27;;;11.87;;
66093;SDS011;52876;49.394;10.892;2022-11-15T18:46:13;13.07;;;11.70;;
66093;SDS011;52876;49.394;10.892;2022-11-15T18:48:42;14.90;;;13.30;;
66093;SDS011;52876;49.394;10.892;2022-11-15T18:51:09;16.30;;;13.60;;
66093;SDS011;52876;49.394;10.892;2022-11-15T18:53:36;17.60;;;14.93;;
66093;SDS011;52876;49.394;10.892;2022-11-15T18:56:02;17.10;;;12.07;;
66093;SDS011;52876;49.394;10.892;2022-11-15T18:58:30;19.20;;;15.23;;
66093;SDS011;52876;49.394;10.892;2022-11-15T19:00:59;32.80;;;25.93;;
66093;SDS011;52876;49.394;10.892;2022-11-15T19:03:26;17.93;;;13.50;;
66093;SDS011;52876;49.394;10.892;2022-11-15T19:06:00;30.80;;;19.40;;
66093;SDS011;52876;49.394;10.892;2022-11-15T19:08:26;22.97;;;17.70;;
66093;SDS011;52876;49.394;10.892;2022-11-15T19:10:54;33.53;;;19.93;;
66093;SDS011;52876;49.394;10.892;2022-11-15T19:13:20;25.43;;;18.07;;
66093;SDS011;52876;49.394;10.892;2022-11-15T19:15:47;25.00;;;17.87;;
66093;SDS011;52876;49.394;10.892;2022-11-15T19:18:13;42.97;;;23.90;;
66093;SDS011;52876;49.394;10.892;2022-11-15T19:20:39;24.20;;;19.07;;
66093;SDS011;52876;49.394;10.892;2022-11-15T19:23:06;24.93;;;17.40;;
66093;SDS011;52876;49.394;10.892;2022-11-15T19:25:32;17.03;;;13.67;;
66093;SDS011;52876;49.394;10.892;2022-11-15T19:27:58;25.77;;;18.17;;
66093;SDS011;52876;49.394;10.892;2022-11-15T19:30:24;27.83;;;18.03;;
66093;SDS011;52876;49.394;10.892;2022-11-15T19:32:50;42.40;;;20.63;;
66093;SDS011;52876;49.394;10.892;2022-11-15T19:35:16;17.67;;;14.03;;
66093;SDS011;52876;49.394;10.892;2022-11-15T19:37:44;17.00;;;12.90;;
66093;SDS011;52876;49.394;10.892;2022-11-15T19:40:11;14.60;;;11.10;;
66093;SDS011;52876;49.394;10.892;2022-11-15T19:42:39;12.60;;;11.03;;
66093;SDS011;52876;49.394;10.892;2022-11-15T19:45:05;13.60;;;10.97;;
66093;SDS011;52876;49.394;10.892;2022-11-15T19:47:32;17.13;;;13.27;;
66093;SDS011;52876;49.394;10.892;2022-11-15T19:49:58;24.23;;;16.07;;
66093;SDS011;52876;49.394;10.892;2022-11-15T19:52:24;27.27;;;16.80;;
66093;SDS011;52876;49.394;10.892;2022-11-15T19:54:50;25.87;;;16.13;;
66093;SDS011;52876;49.394;10.892;2022-11-15T19:57:19;13.60;;;10.80;;
66093;SDS011;52876;49.394;10.892;2022-11-15T19:59:45;23.27;;;15.53;;
66093;SDS011;52876;49.394;10.892;2022-11-15T20:02:11;17.60;;;14.90;;
66093;SDS011;52876;49.394;10.892;2022-11-15T20:04:37;21.53;;;16.53;;
66093;SDS011;52876;49.394;10.892;2022-11-15T20:07:03;30.07;;;19.97;;
66093;SDS011;52876;49.394;10.892;2022-11-15T20:09:29;22.40;;;17.67;;
66093;SDS011;52876;49.394;10.892;2022-11-15T20:11:57;27.20;;;18.60;;
66093;SDS011;52876;49.394;10.892;2022-11-15T20:14:24;16.43;;;14.60;;
66093;SDS011;52876;49.394;10.892;2022-11-15T20:16:52;21.33;;;17.23;;
66093;SDS011;52876;49.394;10.892;2022-11-15T20:19:18;16.20;;;13.57;;
66093;SDS011;52876;49.394;10.892;2022-11-15T20:21:45;16.97;;;15.03;;
66093;SDS011;52876;49.394;10.892;2022-11-15T20:24:11;22.13;;;18.03;;
66093;SDS011;52876;49.394;10.892;2022-11-15T20:26:37;22.60;;;16.23;;
66093;SDS011;52876;49.394;10.892;2022-11-15T20:29:03;20.10;;;17.97;;
66093;SDS011;52876;49.394;10.892;2022-11-15T20:31:32;18.87;;;15.37;;
66093;SDS011;52876;49.394;10.892;2022-11-15T20:33:58;25.43;;;18.57;;
66093;SDS011;52876;49.394;10.892;2022-11-15T20:36:24;16.43;;;14.63;;